sensor_id;sensor_type;location;lat;lon;timestamp;pressure;altitude;pressure_sealevel;temperature;humidity
76132;BME280;64877;50.994;13.650;2023-04-01T00:00:41;97850.06;;;10.16;75.06
76132;BME280;64877;50.994;13.650;2023-04-01T00:03:06;97838.84;;;10.29;75.32
76132;BME280;64877;50.994;13.650;2023-04-01T00:05:32;97840.75;;;10.37;74.14
76132;BME280;64877;50.994;13.650;2023-04-01T00:07:57;97839.56;;;10.39;74.46
76132;BME280;64877;50.994;13.650;2023-04-01T00:10:22;97834.47;;;10.28;75.34
76132;BME280;64877;50.994;13.650;2023-04-01T00:12:48;97836.16;;;10.29;74.90
76132;BME280;64877;50.994;13.650;2023-04-01T00:15:13;97834.91;;;10.49;74.01
76132;BME280;64877;50.994;13.650;2023-04-01T00:17:39;97841.41;;;10.39;74.82
76132;BME280;64877;50.994;13.650;2023-04-01T00:20:05;97841.53;;;10.29;74.66
76132;BME280;64877;50.994;13.650;2023-04-01T00:22:32;97838.34;;;10.25;75.26
76132;BME280;64877;50.994;13.650;2023-04-01T00:24:59;97835.88;;;10.40;74.59
76132;BME280;64877;50.994;13.650;2023-04-01T00:27:24;97840.22;;;10.33;74.97
76132;BME280;64877;50.994;13.650;2023-04-01T00:29:49;97832.22;;;10.57;74.07
76132;BME280;64877;50.994;13.650;2023-04-01T00:32:15;97847.13;;;10.27;75.22
76132;BME280;64877;50.994;13.650;2023-04-01T00:34:41;97840.97;;;10.17;76.02
76132;BME280;64877;50.994;13.650;2023-04-01T00:37:07;97846.84;;;10.13;75.69
76132;BME280;64877;50.994;13.650;2023-04-01T00:39:34;97837.50;;;10.25;75.29
76132;BME280;64877;50.994;13.650;2023-04-01T00:42:00;97852.59;;;10.18;75.50
76132;BME280;64877;50.994;13.650;2023-04-01T00:44:29;97833.63;;;10.27;75.66
76132;BME280;64877;50.994;13.650;2023-04-01T00:46:55;97843.56;;;10.27;75.63
76132;BME280;64877;50.994;13.650;2023-04-01T00:49:24;97843.25;;;10.30;75.90
76132;BME280;64877;50.994;13.650;2023-04-01T00:51:53;97841.25;;;10.32;75.56
76132;BME280;64877;50.994;13.650;2023-04-01T00:54:21;97842.91;;;10.25;76.09
76132;BME280;64877;50.994;13.650;2023-04-01T00:56:52;97843.84;;;10.50;75.40
76132;BME280;64877;50.994;13.650;2023-04-01T00:59:34;97839.91;;;10.36;75.01
76132;BME280;64877;50.994;13.650;2023-04-01T01:02:05;97839.41;;;10.41;74.56
76132;BME280;64877;50.994;13.650;2023-04-01T01:04:33;97836.88;;;10.39;74.85
76132;BME280;64877;50.994;13.650;2023-04-01T01:12:28;97841.28;;;10.40;74.95
76132;BME280;64877;50.994;13.650;2023-04-01T01:18:19;97837.88;;;10.30;74.66
76132;BME280;64877;50.994;13.650;2023-04-01T01:31:50;97831.47;;;10.31;74.50
76132;BME280;64877;50.994;13.650;2023-04-01T01:34:31;97835.88;;;10.48;74.26
76132;BME280;64877;50.994;13.650;2023-04-01T01:37:05;97829.25;;;10.26;74.91
76132;BME280;64877;50.994;13.650;2023-04-01T01:39:34;97825.31;;;10.21;75.22
76132;BME280;64877;50.994;13.650;2023-04-01T01:42:04;97828.50;;;10.16;75.19
76132;BME280;64877;50.994;13.650;2023-04-01T01:44:32;97831.78;;;10.28;74.59
76132;BME280;64877;50.994;13.650;2023-04-01T01:46:59;97822.03;;;10.35;74.09
76132;BME280;64877;50.994;13.650;2023-04-01T01:49:27;97829.06;;;10.28;74.02
76132;BME280;64877;50.994;13.650;2023-04-01T01:51:52;97820.22;;;10.18;74.25
76132;BME280;64877;50.994;13.650;2023-04-01T01:54:18;97830.31;;;10.07;75.60
76132;BME280;64877;50.994;13.650;2023-04-01T01:56:46;97831.09;;;10.26;74.83
76132;BME280;64877;50.994;13.650;2023-04-01T01:59:15;97836.00;;;10.30;73.95
76132;BME280;64877;50.994;13.650;2023-04-01T02:01:48;97832.78;;;10.27;74.53
76132;BME280;64877;50.994;13.650;2023-04-01T02:04:15;97831.09;;;10.26;74.57
76132;BME280;64877;50.994;13.650;2023-04-01T02:07:04;97831.31;;;10.06;75.18
76132;BME280;64877;50.994;13.650;2023-04-01T02:09:32;97832.72;;;10.19;74.45
76132;BME280;64877;50.994;13.650;2023-04-01T02:12:03;97834.38;;;10.12;74.26
76132;BME280;64877;50.994;13.650;2023-04-01T02:14:52;97831.31;;;10.06;74.80
76132;BME280;64877;50.994;13.650;2023-04-01T02:17:26;97831.47;;;10.05;74.62
76132;BME280;64877;50.994;13.650;2023-04-01T02:20:01;97837.72;;;10.05;74.49
76132;BME280;64877;50.994;13.650;2023-04-01T02:22:32;97838.50;;;10.24;73.80
76132;BME280;64877;50.994;13.650;2023-04-01T02:25:03;97836.59;;;10.16;74.24
76132;BME280;64877;50.994;13.650;2023-04-01T02:27:31;97843.97;;;10.06;74.15
76132;BME280;64877;50.994;13.650;2023-04-01T02:29:57;97848.16;;;10.08;74.02
76132;BME280;64877;50.994;13.650;2023-04-01T02:32:23;97833.34;;;10.04;74.18
76132;BME280;64877;50.994;13.650;2023-04-01T02:34:50;97843.00;;;10.23;73.62
76132;BME280;64877;50.994;13.650;2023-04-01T02:37:16;97839.47;;;10.15;73.79
76132;BME280;64877;50.994;13.650;2023-04-01T02:39:41;97836.41;;;10.09;73.58
76132;BME280;64877;50.994;13.650;2023-04-01T02:42:08;97841.44;;;10.13;73.55
76132;BME280;64877;50.994;13.650;2023-04-01T02:44:33;97838.28;;;10.17;73.78
76132;BME280;64877;50.994;13.650;2023-04-01T02:46:59;97850.50;;;10.03;74.09
76132;BME280;64877;50.994;13.650;2023-04-01T02:49:24;97852.75;;;10.42;72.67
76132;BME280;64877;50.994;13.650;2023-04-01T02:51:49;97851.09;;;10.23;73.28
76132;BME280;64877;50.994;13.650;2023-04-01T02:54:17;97845.59;;;10.25;72.92
76132;BME280;64877;50.994;13.650;2023-04-01T02:56:42;97855.41;;;10.00;73.65
76132;BME280;64877;50.994;13.650;2023-04-01T02:59:08;97846.84;;;10.13;73.39
76132;BME280;64877;50.994;13.650;2023-04-01T03:01:33;97850.66;;;10.02;73.69
76132;BME280;64877;50.994;13.650;2023-04-01T03:03:58;97855.75;;;10.31;72.97
76132;BME280;64877;50.994;13.650;2023-04-01T03:06:24;97860.69;;;10.09;73.11
76132;BME280;64877;50.994;13.650;2023-04-01T03:08:50;97849.72;;;10.19;72.90
76132;BME280;64877;50.994;13.650;2023-04-01T03:11:15;97854.28;;;10.10;73.07
76132;BME280;64877;50.994;13.650;2023-04-01T03:13:40;97853.91;;;10.05;73.38
76132;BME280;64877;50.994;13.650;2023-04-01T03:16:06;97854.50;;;9.91;73.28
76132;BME280;64877;50.994;13.650;2023-04-01T03:18:31;97858.88;;;9.92;73.67
76132;BME280;64877;50.994;13.650;2023-04-01T03:20:57;97856.06;;;10.02;73.70
76132;BME280;64877;50.994;13.650;2023-04-01T03:23:22;97850.31;;;9.97;73.80
76132;BME280;64877;50.994;13.650;2023-04-01T03:25:49;97864.16;;;10.02;73.10
76132;BME280;64877;50.994;13.650;2023-04-01T03:28:16;97862.84;;;10.14;72.98
76132;BME280;64877;50.994;13.650;2023-04-01T03:30:41;97854.28;;;10.19;72.81
76132;BME280;64877;50.994;13.650;2023-04-01T03:33:07;97860.38;;;10.21;71.98
76132;BME280;64877;50.994;13.650;2023-04-01T03:35:33;97862.06;;;10.22;72.38
76132;BME280;64877;50.994;13.650;2023-04-01T03:38:00;97866.06;;;10.09;72.81
76132;BME280;64877;50.994;13.650;2023-04-01T03:40:26;97872.59;;;10.25;72.58
76132;BME280;64877;50.994;13.650;2023-04-01T03:42:51;97874.16;;;10.09;72.17
76132;BME280;64877;50.994;13.650;2023-04-01T03:45:17;97863.38;;;10.09;72.65
76132;BME280;64877;50.994;13.650;2023-04-01T03:47:43;97866.44;;;10.23;71.85
76132;BME280;64877;50.994;13.650;2023-04-01T03:50:08;97865.88;;;10.37;71.95
76132;BME280;64877;50.994;13.650;2023-04-01T03:52:35;97870.34;;;10.20;72.56
76132;BME280;64877;50.994;13.650;2023-04-01T03:55:01;97874.19;;;10.18;72.15
76132;BME280;64877;50.994;13.650;2023-04-01T03:57:27;97882.84;;;9.95;72.84
76132;BME280;64877;50.994;13.650;2023-04-01T03:59:52;97881.47;;;9.91;72.82
76132;BME280;64877;50.994;13.650;2023-04-01T04:02:17;97876.91;;;9.92;72.88
76132;BME280;64877;50.994;13.650;2023-04-01T04:04:43;97881.00;;;10.04;72.71
76132;BME280;64877;50.994;13.650;2023-04-01T04:07:08;97883.88;;;10.02;72.48
76132;BME280;64877;50.994;13.650;2023-04-01T04:09:34;97873.09;;;10.28;71.69
76132;BME280;64877;50.994;13.650;2023-04-01T04:12:00;97875.84;;;10.10;71.64
76132;BME280;64877;50.994;13.650;2023-04-01T04:14:25;97883.72;;;10.04;71.92
76132;BME280;64877;50.994;13.650;2023-04-01T04:16:51;97881.34;;;10.27;71.15
76132;BME280;64877;50.994;13.650;2023-04-01T04:19:17;97885.69;;;10.20;70.69
76132;BME280;64877;50.994;13.650;2023-04-01T04:21:42;97889.50;;;10.35;70.96
76132;BME280;64877;50.994;13.650;2023-04-01T04:24:08;97886.44;;;10.30;70.60
76132;BME280;64877;50.994;13.650;2023-04-01T04:26:34;97889.81;;;10.06;71.55
76132;BME280;64877;50.994;13.650;2023-04-01T04:29:00;97896.41;;;10.12;71.46
76132;BME280;64877;50.994;13.650;2023-04-01T04:31:26;97905.19;;;10.14;71.12
76132;BME280;64877;50.994;13.650;2023-04-01T04:33:52;97898.56;;;10.08;71.11
76132;BME280;64877;50.994;13.650;2023-04-01T04:36:18;97902.81;;;10.10;71.17
76132;BME280;64877;50.994;13.650;2023-04-01T04:38:44;97900.91;;;10.03;71.31
76132;BME280;64877;50.994;13.650;2023-04-01T04:41:10;97903.81;;;10.09;71.36
76132;BME280;64877;50.994;13.650;2023-04-01T04:43:37;97913.38;;;10.04;71.60
76132;BME280;64877;50.994;13.650;2023-04-01T04:46:09;97910.56;;;10.14;71.30
76132;BME280;64877;50.994;13.650;2023-04-01T04:48:35;97906.91;;;10.23;70.33
76132;BME280;64877;50.994;13.650;2023-04-01T04:51:01;97911.63;;;10.21;70.21
76132;BME280;64877;50.994;13.650;2023-04-01T04:53:27;97904.50;;;10.12;70.95
76132;BME280;64877;50.994;13.650;2023-04-01T04:55:52;97914.50;;;9.93;72.03
76132;BME280;64877;50.994;13.650;2023-04-01T04:58:18;97913.81;;;10.17;70.96
76132;BME280;64877;50.994;13.650;2023-04-01T05:00:44;97923.31;;;10.03;71.38
76132;BME280;64877;50.994;13.650;2023-04-01T05:03:11;97920.47;;;10.05;71.85
76132;BME280;64877;50.994;13.650;2023-04-01T05:05:37;97925.72;;;10.06;72.10
76132;BME280;64877;50.994;13.650;2023-04-01T05:08:03;97932.50;;;10.19;71.16
76132;BME280;64877;50.994;13.650;2023-04-01T05:10:28;97930.81;;;10.18;71.39
76132;BME280;64877;50.994;13.650;2023-04-01T05:12:54;97931.81;;;10.34;70.89
76132;BME280;64877;50.994;13.650;2023-04-01T05:15:20;97931.59;;;10.28;71.03
76132;BME280;64877;50.994;13.650;2023-04-01T05:17:45;97938.38;;;10.32;71.42
76132;BME280;64877;50.994;13.650;2023-04-01T05:20:12;97939.38;;;10.31;71.45
76132;BME280;64877;50.994;13.650;2023-04-01T05:22:38;97945.97;;;10.10;71.93
76132;BME280;64877;50.994;13.650;2023-04-01T05:25:04;97936.16;;;10.27;70.95
76132;BME280;64877;50.994;13.650;2023-04-01T05:27:33;97942.44;;;10.36;71.09
76132;BME280;64877;50.994;13.650;2023-04-01T05:29:58;97942.47;;;10.18;71.97
76132;BME280;64877;50.994;13.650;2023-04-01T05:32:24;97943.81;;;10.40;71.25
76132;BME280;64877;50.994;13.650;2023-04-01T05:34:53;97935.91;;;10.47;70.94
76132;BME280;64877;50.994;13.650;2023-04-01T05:37:19;97942.00;;;10.23;71.88
76132;BME280;64877;50.994;13.650;2023-04-01T05:39:45;97942.50;;;10.44;71.34
76132;BME280;64877;50.994;13.650;2023-04-01T05:42:10;97943.16;;;10.46;71.30
76132;BME280;64877;50.994;13.650;2023-04-01T05:44:36;97945.03;;;10.46;71.66
76132;BME280;64877;50.994;13.650;2023-04-01T05:47:02;97937.59;;;10.48;73.88
76132;BME280;64877;50.994;13.650;2023-04-01T05:49:28;97941.84;;;10.50;72.27
76132;BME280;64877;50.994;13.650;2023-04-01T05:51:53;97948.41;;;10.48;71.11
76132;BME280;64877;50.994;13.650;2023-04-01T05:54:19;97936.94;;;10.54;71.10
76132;BME280;64877;50.994;13.650;2023-04-01T05:56:45;97936.94;;;10.54;71.13
76132;BME280;64877;50.994;13.650;2023-04-01T05:59:11;97935.50;;;10.59;71.22
76132;BME280;64877;50.994;13.650;2023-04-01T06:01:37;97941.47;;;10.79;70.75
76132;BME280;64877;50.994;13.650;2023-04-01T06:04:02;97946.66;;;10.73;70.34
76132;BME280;64877;50.994;13.650;2023-04-01T06:06:30;97938.72;;;10.71;69.97
76132;BME280;64877;50.994;13.650;2023-04-01T06:08:59;97949.00;;;10.68;69.79
76132;BME280;64877;50.994;13.650;2023-04-01T06:20:12;97944.44;;;10.68;70.05
76132;BME280;64877;50.994;13.650;2023-04-01T06:26:32;97953.88;;;10.64;70.24
76132;BME280;64877;50.994;13.650;2023-04-01T06:31:26;97958.84;;;10.77;69.44
76132;BME280;64877;50.994;13.650;2023-04-01T06:34:14;97955.22;;;11.02;68.64
76132;BME280;64877;50.994;13.650;2023-04-01T06:39:30;97965.66;;;10.97;68.74
76132;BME280;64877;50.994;13.650;2023-04-01T06:42:14;97952.56;;;11.27;67.15
76132;BME280;64877;50.994;13.650;2023-04-01T06:48:15;97964.41;;;11.26;66.91
76132;BME280;64877;50.994;13.650;2023-04-01T06:56:20;97964.72;;;11.23;67.32
76132;BME280;64877;50.994;13.650;2023-04-01T06:58:51;97971.16;;;11.30;66.49
76132;BME280;64877;50.994;13.650;2023-04-01T07:01:22;97967.31;;;11.49;65.94
76132;BME280;64877;50.994;13.650;2023-04-01T07:06:47;97973.84;;;11.22;66.66
76132;BME280;64877;50.994;13.650;2023-04-01T07:09:20;97973.34;;;11.26;67.16
76132;BME280;64877;50.994;13.650;2023-04-01T07:11:47;97970.81;;;11.33;66.55
76132;BME280;64877;50.994;13.650;2023-04-01T07:14:20;97980.63;;;11.26;67.60
76132;BME280;64877;50.994;13.650;2023-04-01T07:16:59;97981.28;;;11.20;67.54
76132;BME280;64877;50.994;13.650;2023-04-01T07:19:39;97980.75;;;11.16;66.78
76132;BME280;64877;50.994;13.650;2023-04-01T07:22:27;97983.16;;;11.44;66.39
76132;BME280;64877;50.994;13.650;2023-04-01T07:24:56;97986.69;;;11.20;67.27
76132;BME280;64877;50.994;13.650;2023-04-01T07:27:23;97983.00;;;11.37;66.04
76132;BME280;64877;50.994;13.650;2023-04-01T07:29:48;97978.59;;;11.36;67.09
76132;BME280;64877;50.994;13.650;2023-04-01T07:35:41;97994.78;;;11.28;66.60
76132;BME280;64877;50.994;13.650;2023-04-01T07:41:04;97996.50;;;11.29;68.79
76132;BME280;64877;50.994;13.650;2023-04-01T07:46:19;97999.13;;;11.12;70.35
76132;BME280;64877;50.994;13.650;2023-04-01T07:51:43;98001.78;;;11.63;68.64
76132;BME280;64877;50.994;13.650;2023-04-01T08:05:24;98012.47;;;12.46;65.52
76132;BME280;64877;50.994;13.650;2023-04-01T08:08:05;98011.31;;;12.32;65.47
76132;BME280;64877;50.994;13.650;2023-04-01T08:10:56;98011.13;;;12.42;65.80
76132;BME280;64877;50.994;13.650;2023-04-01T08:13:52;98002.56;;;12.86;62.56
76132;BME280;64877;50.994;13.650;2023-04-01T08:16:35;98005.78;;;12.81;63.30
76132;BME280;64877;50.994;13.650;2023-04-01T08:21:50;98014.69;;;12.51;69.14
76132;BME280;64877;50.994;13.650;2023-04-01T08:24:32;98017.00;;;12.78;62.91
76132;BME280;64877;50.994;13.650;2023-04-01T08:27:00;98004.97;;;12.73;62.74
76132;BME280;64877;50.994;13.650;2023-04-01T08:29:38;98012.47;;;12.46;63.94
76132;BME280;64877;50.994;13.650;2023-04-01T08:32:10;98015.84;;;12.56;65.39
76132;BME280;64877;50.994;13.650;2023-04-01T08:34:40;98013.19;;;12.40;64.07
76132;BME280;64877;50.994;13.650;2023-04-01T08:37:11;98022.13;;;12.40;66.45
76132;BME280;64877;50.994;13.650;2023-04-01T08:39:44;98014.69;;;12.51;64.80
76132;BME280;64877;50.994;13.650;2023-04-01T08:56:23;98024.69;;;12.26;64.58
76132;BME280;64877;50.994;13.650;2023-04-01T08:59:04;98027.56;;;12.08;67.19
76132;BME280;64877;50.994;13.650;2023-04-01T09:09:55;98019.78;;;12.05;65.20
76132;BME280;64877;50.994;13.650;2023-04-01T09:18:00;98036.03;;;12.05;65.87
76132;BME280;64877;50.994;13.650;2023-04-01T09:26:00;98034.34;;;12.20;63.30
76132;BME280;64877;50.994;13.650;2023-04-01T09:29:02;98041.25;;;11.98;64.47
76132;BME280;64877;50.994;13.650;2023-04-01T09:32:02;98039.41;;;11.90;66.27
76132;BME280;64877;50.994;13.650;2023-04-01T09:40:17;98035.84;;;12.06;63.90
76132;BME280;64877;50.994;13.650;2023-04-01T09:42:47;98034.34;;;11.96;67.41
76132;BME280;64877;50.994;13.650;2023-04-01T09:50:33;98043.25;;;12.61;61.57
76132;BME280;64877;50.994;13.650;2023-04-01T09:53:18;98044.31;;;12.36;63.24
76132;BME280;64877;50.994;13.650;2023-04-01T10:04:31;98039.88;;;12.59;62.06
76132;BME280;64877;50.994;13.650;2023-04-01T10:21:10;98058.19;;;12.49;66.05
76132;BME280;64877;50.994;13.650;2023-04-01T10:29:24;98054.72;;;12.88;62.03
76132;BME280;64877;50.994;13.650;2023-04-01T10:52:21;98057.63;;;12.70;63.82
76132;BME280;64877;50.994;13.650;2023-04-01T10:57:37;98045.53;;;13.05;63.35
76132;BME280;64877;50.994;13.650;2023-04-01T11:11:04;98048.16;;;12.74;63.79
76132;BME280;64877;50.994;13.650;2023-04-01T11:21:53;98055.84;;;13.10;61.61
76132;BME280;64877;50.994;13.650;2023-04-01T11:32:30;98054.03;;;12.94;63.33
76132;BME280;64877;50.994;13.650;2023-04-01T11:38:07;98055.59;;;12.72;66.89
76132;BME280;64877;50.994;13.650;2023-04-01T11:46:16;98054.97;;;12.46;68.82
76132;BME280;64877;50.994;13.650;2023-04-01T12:00:05;98035.72;;;12.96;68.91
76132;BME280;64877;50.994;13.650;2023-04-01T12:06:02;98037.00;;;13.16;66.10
76132;BME280;64877;50.994;13.650;2023-04-01T12:11:35;98042.16;;;13.03;65.58
76132;BME280;64877;50.994;13.650;2023-04-01T12:14:16;98043.19;;;12.94;65.59
76132;BME280;64877;50.994;13.650;2023-04-01T12:16:55;98042.19;;;12.87;64.92
76132;BME280;64877;50.994;13.650;2023-04-01T12:19:40;98047.13;;;12.83;65.81
76132;BME280;64877;50.994;13.650;2023-04-01T12:22:12;98051.19;;;12.79;66.90
76132;BME280;64877;50.994;13.650;2023-04-01T12:24:47;98043.22;;;12.78;66.34
76132;BME280;64877;50.994;13.650;2023-04-01T12:27:31;98045.41;;;12.82;65.30
76132;BME280;64877;50.994;13.650;2023-04-01T12:38:28;98057.78;;;12.77;62.74
76132;BME280;64877;50.994;13.650;2023-04-01T12:52:01;98054.09;;;13.33;60.24
76132;BME280;64877;50.994;13.650;2023-04-01T12:55:02;98053.41;;;13.31;59.47
76132;BME280;64877;50.994;13.650;2023-04-01T12:57:46;98052.44;;;13.55;58.62
76132;BME280;64877;50.994;13.650;2023-04-01T13:06:32;98061.16;;;13.74;56.54
76132;BME280;64877;50.994;13.650;2023-04-01T13:17:26;98067.38;;;13.51;58.32
76132;BME280;64877;50.994;13.650;2023-04-01T13:20:01;98063.28;;;13.55;57.96
76132;BME280;64877;50.994;13.650;2023-04-01T13:25:13;98069.47;;;13.41;57.08
76132;BME280;64877;50.994;13.650;2023-04-01T13:27:43;98071.16;;;13.42;58.37
76132;BME280;64877;50.994;13.650;2023-04-01T13:30:37;98075.00;;;13.56;56.55
76132;BME280;64877;50.994;13.650;2023-04-01T13:36:37;98072.88;;;13.97;53.95
76132;BME280;64877;50.994;13.650;2023-04-01T13:44:51;98074.03;;;13.40;55.65
76132;BME280;64877;50.994;13.650;2023-04-01T14:09:44;98088.44;;;13.41;58.34
76132;BME280;64877;50.994;13.650;2023-04-01T14:18:15;98094.91;;;13.32;58.09
76132;BME280;64877;50.994;13.650;2023-04-01T14:23:49;98084.44;;;13.29;58.83
76132;BME280;64877;50.994;13.650;2023-04-01T14:28:55;98098.53;;;13.24;58.54
76132;BME280;64877;50.994;13.650;2023-04-01T14:31:38;98097.69;;;13.24;58.35
76132;BME280;64877;50.994;13.650;2023-04-01T14:34:21;98110.88;;;13.18;59.21
76132;BME280;64877;50.994;13.650;2023-04-01T14:37:01;98117.47;;;13.16;59.83
76132;BME280;64877;50.994;13.650;2023-04-01T14:50:45;98128.91;;;12.71;61.43
76132;BME280;64877;50.994;13.650;2023-04-01T14:53:23;98129.94;;;12.70;60.87
76132;BME280;64877;50.994;13.650;2023-04-01T14:55:54;98136.88;;;12.64;60.43
76132;BME280;64877;50.994;13.650;2023-04-01T14:58:22;98134.00;;;12.74;59.52
76132;BME280;64877;50.994;13.650;2023-04-01T15:00:58;98126.38;;;12.69;59.43
76132;BME280;64877;50.994;13.650;2023-04-01T15:15:04;98136.19;;;12.62;61.20
76132;BME280;64877;50.994;13.650;2023-04-01T15:17:53;98141.94;;;12.67;61.69
76132;BME280;64877;50.994;13.650;2023-04-01T15:26:11;98149.06;;;12.60;61.31
76132;BME280;64877;50.994;13.650;2023-04-01T15:28:49;98143.97;;;12.57;62.44
76132;BME280;64877;50.994;13.650;2023-04-01T15:37:11;98151.28;;;12.48;62.36
76132;BME280;64877;50.994;13.650;2023-04-01T15:40:11;98158.34;;;12.41;63.03
76132;BME280;64877;50.994;13.650;2023-04-01T15:54:25;98164.22;;;12.04;63.78
76132;BME280;64877;50.994;13.650;2023-04-01T16:02:22;98169.13;;;12.08;64.55
76132;BME280;64877;50.994;13.650;2023-04-01T16:05:00;98176.91;;;12.11;65.66
76132;BME280;64877;50.994;13.650;2023-04-01T16:21:13;98186.50;;;11.98;67.49
76132;BME280;64877;50.994;13.650;2023-04-01T16:23:59;98190.09;;;12.06;67.80
76132;BME280;64877;50.994;13.650;2023-04-01T16:26:44;98192.97;;;12.05;66.65
76132;BME280;64877;50.994;13.650;2023-04-01T16:32:21;98206.22;;;11.82;67.79
76132;BME280;64877;50.994;13.650;2023-04-01T16:37:38;98205.94;;;11.93;68.67
76132;BME280;64877;50.994;13.650;2023-04-01T16:43:26;98221.97;;;11.86;69.26
76132;BME280;64877;50.994;13.650;2023-04-01T16:49:03;98221.97;;;12.29;68.55
76132;BME280;64877;50.994;13.650;2023-04-01T16:57:18;98234.44;;;12.13;70.72
76132;BME280;64877;50.994;13.650;2023-04-01T17:00:28;98240.47;;;12.07;71.66
76132;BME280;64877;50.994;13.650;2023-04-01T17:05:42;98239.47;;;12.00;70.31
76132;BME280;64877;50.994;13.650;2023-04-01T17:11:03;98251.19;;;11.83;72.44
76132;BME280;64877;50.994;13.650;2023-04-01T17:13:35;98257.22;;;11.69;73.33
76132;BME280;64877;50.994;13.650;2023-04-01T17:16:24;98262.09;;;11.65;73.86
76132;BME280;64877;50.994;13.650;2023-04-01T17:19:14;98266.53;;;11.74;73.81
76132;BME280;64877;50.994;13.650;2023-04-01T17:27:10;98276.13;;;11.17;77.38
76132;BME280;64877;50.994;13.650;2023-04-01T17:35:22;98289.31;;;10.84;79.18
76132;BME280;64877;50.994;13.650;2023-04-01T17:40:52;98290.03;;;10.50;82.01
76132;BME280;64877;50.994;13.650;2023-04-01T17:51:14;98308.72;;;10.34;82.62
76132;BME280;64877;50.994;13.650;2023-04-01T17:54:37;98308.44;;;10.37;82.45
76132;BME280;64877;50.994;13.650;2023-04-01T17:56:48;98319.00;;;10.30;83.29
76132;BME280;64877;50.994;13.650;2023-04-01T17:59:29;98311.56;;;10.32;83.38
76132;BME280;64877;50.994;13.650;2023-04-01T18:13:39;98325.91;;;10.05;84.58
76132;BME280;64877;50.994;13.650;2023-04-01T18:18:40;98336.25;;;10.10;84.57
76132;BME280;64877;50.994;13.650;2023-04-01T18:23:44;98345.06;;;10.02;85.50
76132;BME280;64877;50.994;13.650;2023-04-01T18:26:20;98341.81;;;9.99;85.94
76132;BME280;64877;50.994;13.650;2023-04-01T18:29:19;98346.66;;;9.95;85.09
76132;BME280;64877;50.994;13.650;2023-04-01T18:31:54;98352.16;;;10.03;84.33
76132;BME280;64877;50.994;13.650;2023-04-01T18:34:50;98355.44;;;9.97;85.17
76132;BME280;64877;50.994;13.650;2023-04-01T18:37:24;98356.59;;;9.95;85.55
76132;BME280;64877;50.994;13.650;2023-04-01T18:40:00;98359.28;;;10.04;84.83
76132;BME280;64877;50.994;13.650;2023-04-01T18:45:01;98365.25;;;9.89;85.40
76132;BME280;64877;50.994;13.650;2023-04-01T18:47:43;98365.66;;;9.94;85.25
76132;BME280;64877;50.994;13.650;2023-04-01T18:50:37;98365.38;;;9.97;84.55
76132;BME280;64877;50.994;13.650;2023-04-01T18:55:52;98374.13;;;10.08;84.23
76132;BME280;64877;50.994;13.650;2023-04-01T18:58:35;98377.56;;;10.10;84.37
76132;BME280;64877;50.994;13.650;2023-04-01T19:01:22;98384.34;;;10.15;84.16
76132;BME280;64877;50.994;13.650;2023-04-01T19:04:30;98382.75;;;10.22;84.03
76132;BME280;64877;50.994;13.650;2023-04-01T19:07:01;98381.13;;;10.39;82.65
76132;BME280;64877;50.994;13.650;2023-04-01T19:09:36;98382.50;;;10.52;82.29
76132;BME280;64877;50.994;13.650;2023-04-01T19:12:26;98379.91;;;10.60;81.78
76132;BME280;64877;50.994;13.650;2023-04-01T19:15:18;98394.63;;;10.66;81.30
76132;BME280;64877;50.994;13.650;2023-04-01T19:18:21;98394.22;;;10.33;82.34
76132;BME280;64877;50.994;13.650;2023-04-01T19:26:20;98397.84;;;10.52;81.08
76132;BME280;64877;50.994;13.650;2023-04-01T19:29:29;98399.66;;;10.61;80.96
76132;BME280;64877;50.994;13.650;2023-04-01T19:32:15;98405.00;;;10.71;80.81
76132;BME280;64877;50.994;13.650;2023-04-01T19:35:08;98408.38;;;10.73;79.86
76132;BME280;64877;50.994;13.650;2023-04-01T19:37:50;98408.09;;;10.76;80.06
76132;BME280;64877;50.994;13.650;2023-04-01T19:45:39;98419.47;;;10.42;81.45
76132;BME280;64877;50.994;13.650;2023-04-01T19:53:51;98434.72;;;10.14;83.33
76132;BME280;64877;50.994;13.650;2023-04-01T19:56:20;98433.16;;;10.21;83.90
76132;BME280;64877;50.994;13.650;2023-04-01T19:58:56;98440.00;;;10.16;83.42
76132;BME280;64877;50.994;13.650;2023-04-01T20:07:14;98454.97;;;9.91;85.32
76132;BME280;64877;50.994;13.650;2023-04-01T20:13:00;98459.63;;;9.89;85.61
76132;BME280;64877;50.994;13.650;2023-04-01T20:17:59;98462.75;;;9.84;86.12
76132;BME280;64877;50.994;13.650;2023-04-01T20:20:28;98470.16;;;9.92;85.82
76132;BME280;64877;50.994;13.650;2023-04-01T20:23:25;98470.56;;;9.97;85.65
76132;BME280;64877;50.994;13.650;2023-04-01T20:26:00;98478.91;;;10.03;84.65
76132;BME280;64877;50.994;13.650;2023-04-01T20:28:47;98476.94;;;10.15;84.49
76132;BME280;64877;50.994;13.650;2023-04-01T20:31:34;98476.22;;;10.03;85.15
76132;BME280;64877;50.994;13.650;2023-04-01T20:34:36;98484.63;;;10.00;85.62
76132;BME280;64877;50.994;13.650;2023-04-01T20:37:18;98488.00;;;10.02;86.00
76132;BME280;64877;50.994;13.650;2023-04-01T20:40:02;98486.16;;;10.13;85.64
76132;BME280;64877;50.994;13.650;2023-04-01T20:42:50;98485.88;;;10.16;84.53
76132;BME280;64877;50.994;13.650;2023-04-01T20:45:26;98494.81;;;10.06;85.80
76132;BME280;64877;50.994;13.650;2023-04-01T20:53:12;98499.06;;;9.99;86.19
76132;BME280;64877;50.994;13.650;2023-04-01T20:56:02;98501.06;;;10.17;85.80
76132;BME280;64877;50.994;13.650;2023-04-01T20:59:09;98501.63;;;10.20;85.06
76132;BME280;64877;50.994;13.650;2023-04-01T21:20:56;98524.91;;;10.12;85.13
76132;BME280;64877;50.994;13.650;2023-04-01T21:23:45;98526.34;;;9.96;86.06
76132;BME280;64877;50.994;13.650;2023-04-01T21:26:52;98533.28;;;9.89;86.33
76132;BME280;64877;50.994;13.650;2023-04-01T21:29:49;98547.78;;;9.88;86.69